createdAt,value
2019-04-28T00:00:01.459Z,86.39
2019-04-28T00:04:05.558Z,86.34
2019-04-28T00:08:07.635Z,86.24
2019-04-28T00:12:10.978Z,85.27
2019-04-28T00:16:13.119Z,86.11
2019-04-28T00:20:21.319Z,84.99
2019-04-28T00:24:25.057Z,84.94
2019-04-28T00:28:26.936Z,85.28
2019-04-28T00:32:30.491Z,85.44
2019-04-28T00:36:32.434Z,85.28
2019-04-28T00:40:34.574Z,84.87
2019-04-28T00:44:36.524Z,84.83
2019-04-28T00:48:38.699Z,85.40
2019-04-28T00:52:41.853Z,85.17
2019-04-28T00:56:43.894Z,85.39
2019-04-28T01:01:05.599Z,85.64
2019-04-28T01:05:11.341Z,85.83
2019-04-28T01:09:13.867Z,85.53
2019-04-28T01:13:15.763Z,85.83
2019-04-28T01:17:34.365Z,86.43
2019-04-28T01:21:37.907Z,86.54
2019-04-28T01:25:40.162Z,86.10
2019-04-28T01:29:43.602Z,86.32
2019-04-28T01:34:03.316Z,86.67
2019-04-28T01:38:05.278Z,87.01
2019-04-28T01:42:07.170Z,86.38
2019-04-28T01:46:10.171Z,86.76
2019-04-28T01:50:12.203Z,86.88
2019-04-28T01:54:14.101Z,87.14
2019-04-28T01:58:15.987Z,86.35
2019-04-28T02:02:19.788Z,85.83
2019-04-28T02:06:22.805Z,85.26
2019-04-28T02:10:24.734Z,84.72
2019-04-28T02:14:27.452Z,86.70
2019-04-28T02:18:29.926Z,86.37
2019-04-28T02:22:34.235Z,85.83
2019-04-28T02:26:36.117Z,85.83
2019-04-28T02:30:45.347Z,86.35
2019-04-28T02:34:41.977Z,86.67
2019-04-28T02:38:43.853Z,86.71
2019-04-28T02:42:45.868Z,87.31
2019-04-28T02:46:50.576Z,87.01
2019-04-28T02:51:01.234Z,87.71
2019-04-28T02:55:03.496Z,86.97
2019-04-28T02:59:06.601Z,87.73
2019-04-28T03:03:10.851Z,87.70
2019-04-28T03:07:14.660Z,87.87
2019-04-28T03:11:15.759Z,88.33
2019-04-28T03:15:20.386Z,87.98
2019-04-28T03:19:23.012Z,88.07
2019-04-28T03:23:25.086Z,87.52
2019-04-28T03:27:44.926Z,87.54
2019-04-28T03:32:28.264Z,87.67
2019-04-28T03:36:14.678Z,86.37
2019-04-28T03:40:12.645Z,88.08
2019-04-28T03:44:14.532Z,88.02
2019-04-28T03:48:16.546Z,88.32
2019-04-28T03:52:21.189Z,86.69
2019-04-28T03:56:23.325Z,86.89
2019-04-28T04:00:25.419Z,86.71
2019-04-28T04:04:27.377Z,87.87
2019-04-28T04:08:30.886Z,87.42
2019-04-28T04:12:36.962Z,87.76
2019-04-28T04:16:41.285Z,87.82
2019-04-28T04:20:43.178Z,87.41
2019-04-28T04:24:45.109Z,87.42
2019-04-28T04:28:46.987Z,88.22
2019-04-28T04:32:50.660Z,88.34
2019-04-28T04:36:52.471Z,88.21
2019-04-28T04:40:54.372Z,88.19
2019-04-28T04:44:56.344Z,87.79
2019-04-28T04:49:07.720Z,88.07
2019-04-28T04:53:11.401Z,87.81
2019-04-28T04:57:13.332Z,87.96
2019-04-28T05:01:32.724Z,88.31
2019-04-28T05:05:40.380Z,87.92
2019-04-28T05:09:43.388Z,87.81
2019-04-28T05:13:45.273Z,87.42
2019-04-28T05:17:47.170Z,86.49
2019-04-28T05:21:49.846Z,87.13
2019-04-28T05:25:51.904Z,85.64
2019-04-28T05:29:56.947Z,86.00
2019-04-28T05:33:57.606Z,85.23
2019-04-28T05:37:59.881Z,84.93
2019-04-28T05:42:01.836Z,85.66
2019-04-28T05:46:03.958Z,84.67
2019-04-28T05:50:14.489Z,85.72
2019-04-28T05:54:23.478Z,86.66
2019-04-28T05:58:32.531Z,86.47
2019-04-28T06:02:54.176Z,87.59
2019-04-28T06:06:47.002Z,87.34
2019-04-28T06:10:49.838Z,86.29
2019-04-28T06:14:52.069Z,86.34
2019-04-28T06:18:54.043Z,85.48
2019-04-28T06:22:55.990Z,85.36
2019-04-28T06:26:57.851Z,86.62
2019-04-28T06:30:59.759Z,87.38
2019-04-28T06:35:02.554Z,86.08
2019-04-28T06:39:08.212Z,86.55
2019-04-28T06:43:10.116Z,86.97
2019-04-28T06:47:12.026Z,86.78
2019-04-28T06:51:13.921Z,85.96
2019-04-28T06:55:15.874Z,85.82
2019-04-28T06:59:18.042Z,85.30
2019-04-28T07:03:23.194Z,83.98
2019-04-28T07:07:24.410Z,83.61
2019-04-28T07:11:26.296Z,82.71
2019-04-28T07:15:28.285Z,83.85
2019-04-28T07:19:30.171Z,83.65
2019-04-28T07:23:33.113Z,82.82
2019-04-28T07:27:35.008Z,82.36
2019-04-28T07:31:37.082Z,82.90
2019-04-28T07:35:38.989Z,81.08
2019-04-28T07:39:40.994Z,80.97
2019-04-28T07:43:42.915Z,81.30
2019-04-28T07:47:44.831Z,81.83
2019-04-28T07:51:51.434Z,78.91
2019-04-28T07:55:53.391Z,79.25
2019-04-28T07:59:56.527Z,79.53
2019-04-28T08:03:58.585Z,81.06
2019-04-28T08:08:00.472Z,78.98
2019-04-28T08:12:02.416Z,80.88
2019-04-28T08:16:23.159Z,80.99
2019-04-28T08:28:41.450Z,80.49
2019-04-28T08:32:47.912Z,80.73
2019-04-28T08:36:49.821Z,80.82
2019-04-28T08:40:51.794Z,80.12
2019-04-28T08:44:53.790Z,81.64
2019-04-28T08:48:55.728Z,79.81
2019-04-28T08:52:57.635Z,78.29
2019-04-28T08:56:59.531Z,79.00
2019-04-28T09:01:01.440Z,78.25
2019-04-28T09:05:03.881Z,80.26
2019-04-28T09:09:08.133Z,79.83
2019-04-28T09:13:11.253Z,80.36
2019-04-28T09:17:13.127Z,77.49
2019-04-28T09:21:15.089Z,77.21
2019-04-28T09:25:26.784Z,76.88
2019-04-28T09:29:28.762Z,76.45
2019-04-28T09:33:30.672Z,75.97
2019-04-28T09:37:32.562Z,75.87
2019-04-28T09:42:11.120Z,75.37
2019-04-28T09:46:13.500Z,73.80
2019-04-28T09:50:28.870Z,74.45
2019-04-28T09:54:30.800Z,75.47
2019-04-28T09:58:32.728Z,70.64
2019-04-28T10:02:34.757Z,69.92
2019-04-28T10:06:36.658Z,68.41
2019-04-28T10:10:38.568Z,67.50
2019-04-28T10:14:40.470Z,67.14
2019-04-28T10:18:42.520Z,65.76
2019-04-28T10:22:44.485Z,67.22
2019-04-28T10:26:46.477Z,65.22
2019-04-28T10:30:50.126Z,60.76
2019-04-28T10:34:55.125Z,56.87
2019-04-28T10:38:57.611Z,58.61
2019-04-28T10:42:59.511Z,61.22
2019-04-28T10:47:01.866Z,62.82
2019-04-28T10:51:03.921Z,63.22
2019-04-28T10:55:06.855Z,63.64
2019-04-28T10:59:08.833Z,62.72
2019-04-28T11:03:10.737Z,59.32
2019-04-28T11:07:14.463Z,59.38
2019-04-28T11:11:18.014Z,59.74
2019-04-28T11:15:33.958Z,61.83
2019-04-28T11:19:35.913Z,61.57
2019-04-28T11:23:39.379Z,57.22
2019-04-28T11:27:42.189Z,58.61
2019-04-28T11:31:44.169Z,55.52
2019-04-28T11:35:48.138Z,57.60
2019-04-28T11:39:51.151Z,57.85
2019-04-28T11:43:54.210Z,56.42
2019-04-28T11:47:56.118Z,53.78
2019-04-28T11:51:58.099Z,55.04
2019-04-28T11:56:00.520Z,57.67
2019-04-28T12:00:04.058Z,55.06
2019-04-28T12:04:07.687Z,54.41
2019-04-28T12:08:09.677Z,54.26
2019-04-28T12:12:13.223Z,58.25
2019-04-28T12:16:25.845Z,56.84
2019-04-28T12:20:27.928Z,56.03
2019-04-28T12:24:29.849Z,58.75
2019-04-28T12:28:31.776Z,57.02
2019-04-28T12:32:33.687Z,57.38
2019-04-28T12:36:35.692Z,57.78
2019-04-28T12:40:37.590Z,58.46
2019-04-28T12:44:39.558Z,59.45
2019-04-28T12:48:41.545Z,63.46
2019-04-28T12:52:43.433Z,63.53
2019-04-28T12:56:48.569Z,63.99
2019-04-28T13:01:01.685Z,63.70
2019-04-28T13:05:08.905Z,67.71
2019-04-28T13:09:10.807Z,66.59
2019-04-28T13:13:13.268Z,68.31
2019-04-28T13:17:15.172Z,69.36
2019-04-28T13:21:17.075Z,69.08
2019-04-28T13:25:18.975Z,69.88
2019-04-28T13:29:21.131Z,71.08
2019-04-28T13:33:23.037Z,68.46
2019-04-28T13:37:24.940Z,66.76
2019-04-28T13:41:26.838Z,65.69
2019-04-28T13:45:29.817Z,67.38
2019-04-28T13:49:33.353Z,66.93
2019-04-28T13:53:35.418Z,65.42
2019-04-28T13:57:37.318Z,67.35
2019-04-28T14:01:44.008Z,61.96
2019-04-28T14:06:04.071Z,59.01
2019-04-28T14:10:09.042Z,54.97
2019-04-28T14:14:10.940Z,51.02
2019-04-28T14:18:13.239Z,50.57
2019-04-28T14:22:15.231Z,52.75
2019-04-28T14:26:17.159Z,51.74
2019-04-28T14:30:19.735Z,51.86
2019-04-28T14:34:21.699Z,51.49
2019-04-28T14:38:23.640Z,51.60
2019-04-28T14:42:25.718Z,51.82
2019-04-28T14:46:27.699Z,53.04
2019-04-28T14:50:30.109Z,51.65
2019-04-28T14:54:32.141Z,50.96
2019-04-28T14:58:34.070Z,50.26
2019-04-28T15:02:40.332Z,47.18
2019-04-28T15:06:55.535Z,47.26
2019-04-28T15:10:57.685Z,46.92
2019-04-28T15:15:12.931Z,47.96
2019-04-28T15:19:14.959Z,46.82
2019-04-28T15:23:16.859Z,45.58
2019-04-28T15:27:18.774Z,43.89
2019-04-28T15:31:20.708Z,40.05
2019-04-28T15:35:22.595Z,40.41
2019-04-28T15:39:25.423Z,40.95
2019-04-28T15:43:27.349Z,40.50
2019-04-28T15:47:29.251Z,38.83
2019-04-28T15:51:32.139Z,39.41
2019-04-28T15:55:38.373Z,39.36
2019-04-28T15:59:40.323Z,40.72
2019-04-28T16:03:42.272Z,40.73
2019-04-28T16:07:44.232Z,40.26
2019-04-28T16:11:46.135Z,41.46
2019-04-28T16:15:48.411Z,42.14
2019-04-28T16:19:50.327Z,41.99
2019-04-28T16:23:52.582Z,43.17
2019-04-28T16:27:54.483Z,46.02
2019-04-28T16:31:56.529Z,47.41
2019-04-28T16:35:58.439Z,48.54
2019-04-28T16:40:00.369Z,49.93
2019-04-28T16:44:02.279Z,50.42
2019-04-28T16:48:04.192Z,52.46
2019-04-28T16:52:14.269Z,53.04
2019-04-28T16:56:15.962Z,52.85
2019-04-28T17:00:31.481Z,54.36
2019-04-28T17:04:33.685Z,53.13
2019-04-28T17:08:35.598Z,56.58
2019-04-28T17:12:37.522Z,58.19
2019-04-28T17:16:39.425Z,59.91
2019-04-28T17:20:41.681Z,60.53
2019-04-28T17:24:43.583Z,61.31
2019-04-28T17:28:46.480Z,62.65
2019-04-28T17:32:48.428Z,64.11
2019-04-28T17:36:50.348Z,64.76
2019-04-28T17:40:52.238Z,65.57
2019-04-28T17:44:54.192Z,66.89
2019-04-28T17:48:58.787Z,67.06
2019-04-28T17:53:00.693Z,66.23
2019-04-28T17:57:12.169Z,66.35
2019-04-28T18:01:21.692Z,68.79
2019-04-28T18:05:31.376Z,70.95
2019-04-28T18:09:33.322Z,71.54
2019-04-28T18:13:35.253Z,71.13
2019-04-28T18:17:47.583Z,70.73
2019-04-28T18:21:49.501Z,71.72
2019-04-28T18:25:51.387Z,72.54
2019-04-28T18:29:53.291Z,72.80
2019-04-28T18:34:13.105Z,72.81
2019-04-28T18:38:34.345Z,72.74
2019-04-28T18:42:30.404Z,73.35
2019-04-28T18:46:32.365Z,73.71
2019-04-28T18:50:34.249Z,74.03
2019-04-28T18:54:36.225Z,74.00
2019-04-28T18:58:38.133Z,74.11
2019-04-28T19:02:39.800Z,74.94
2019-04-28T19:06:42.856Z,74.95
2019-04-28T19:11:02.795Z,74.97
2019-04-28T19:15:07.481Z,75.02
2019-04-28T19:19:11.022Z,75.07
2019-04-28T19:23:26.219Z,75.16
2019-04-28T19:27:28.143Z,75.56
2019-04-28T19:31:30.125Z,75.88
2019-04-28T19:35:32.030Z,76.22
2019-04-28T19:39:33.916Z,76.49
2019-04-28T19:43:35.811Z,76.85
2019-04-28T19:47:37.711Z,76.92
2019-04-28T19:51:39.591Z,77.06
2019-04-28T19:55:49.002Z,77.25
2019-04-28T20:00:08.750Z,77.53
2019-04-28T20:04:12.236Z,77.73
2019-04-28T20:08:14.160Z,78.53
2019-04-28T20:12:16.025Z,78.47
2019-04-28T20:16:17.922Z,78.62
2019-04-28T20:20:19.880Z,78.50
2019-04-28T20:24:22.859Z,78.57
2019-04-28T20:28:26.154Z,78.37
2019-04-28T20:32:29.707Z,78.83
2019-04-28T20:36:35.996Z,78.67
2019-04-28T20:40:40.508Z,79.43
2019-04-28T20:44:42.391Z,79.51
2019-04-28T20:48:44.612Z,79.23
2019-04-28T20:52:53.561Z,78.96
2019-04-28T20:56:55.451Z,79.04
2019-04-28T21:00:57.339Z,79.17
2019-04-28T21:04:59.245Z,79.05
2019-04-28T21:09:01.895Z,79.09
2019-04-28T21:13:05.623Z,79.14
2019-04-28T21:17:07.497Z,79.43
2019-04-28T21:21:09.716Z,79.39
2019-04-28T21:25:11.929Z,80.07
2019-04-28T21:29:13.833Z,80.90
2019-04-28T21:33:16.036Z,81.23
2019-04-28T21:37:18.584Z,81.55
2019-04-28T21:41:20.633Z,81.72
2019-04-28T21:45:27.188Z,81.81
2019-04-28T21:49:30.855Z,82.45
2019-04-28T21:53:32.753Z,82.45
2019-04-28T21:57:34.648Z,81.84
2019-04-28T22:01:36.908Z,81.96
2019-04-28T22:05:39.912Z,82.87
2019-04-28T22:09:41.818Z,83.88
2019-04-28T22:13:45.321Z,84.02
2019-04-28T22:17:47.225Z,84.17
2019-04-28T22:21:49.198Z,83.62
2019-04-28T22:25:51.077Z,83.56
2019-04-28T22:29:52.980Z,83.06
2019-04-28T22:33:54.892Z,83.75
2019-04-28T22:37:56.776Z,84.06
2019-04-28T22:41:58.671Z,84.21
2019-04-28T22:46:00.563Z,84.43
2019-04-28T22:50:02.533Z,84.51
2019-04-28T22:54:09.590Z,84.39
2019-04-28T22:58:31.934Z,84.01
2019-04-28T23:02:33.853Z,84.01
2019-04-28T23:06:35.918Z,84.76
2019-04-28T23:10:37.823Z,84.04
2019-04-28T23:14:39.779Z,84.07
2019-04-28T23:18:41.681Z,84.01
2019-04-28T23:22:47.140Z,84.66
2019-04-28T23:26:48.873Z,84.48
2019-04-28T23:30:50.837Z,84.54
2019-04-28T23:34:52.741Z,85.04
2019-04-28T23:38:54.627Z,84.97
2019-04-28T23:42:58.161Z,84.93
2019-04-28T23:47:01.533Z,84.74
2019-04-28T23:51:03.198Z,84.25
2019-04-28T23:55:08.846Z,83.69
2019-04-28T23:59:10.731Z,83.47
